Time;durP1;ratioP1;P1;durP2;ratioP2;P2;SDS_P1;SDS_P2;PMS_P1;PMS_P2;Temp;Humidity;BMP_temperature;BMP_pressure;BME280_temperature;BME280_humidity;BME280_pressure;Samples;Min_cycle;Max_cycle;Signal;HPM_P1;HPM_P2
2022/09/07 00:00:55;;;;;;;;;;;21.30;93.90;;;;;;6125456;23;19944;-81
2022/09/07 00:03:22;;;;;;;;;;;21.30;94.20;;;;;;6125045;23;19968;-80
2022/09/07 00:05:50;;;;;;;;;;;21.20;94.20;;;;;;6125416;23;19921;-79
2022/09/07 00:08:18;;;;;;;;;;;21.20;94.60;;;;;;6124721;23;19983;-82
2022/09/07 00:10:52;;;;;;;;;;;21.10;95.20;;;;;;6125191;23;20018;-80
2022/09/07 00:13:19;;;;;;;;;;;21.00;95.20;;;;;;6124951;23;20389;-82
2022/09/07 00:15:45;;;;;;;;;;;21.10;95.00;;;;;;6125280;23;19917;-80
2022/09/07 00:18:12;;;;;;;;;;;21.10;94.90;;;;;;6124823;23;19924;-82
2022/09/07 00:20:39;;;;;;;;;;;21.10;94.60;;;;;;6125033;23;20293;-82
2022/09/07 00:23:06;;;;;;;;;;;21.20;94.70;;;;;;6125595;23;19925;-82
2022/09/07 00:25:37;;;;;;;;;;;21.20;94.60;;;;;;6124221;23;19917;-82
2022/09/07 00:28:05;;;;;;;;;;;21.30;94.50;;;;;;6125274;23;20338;-79
2022/09/07 00:30:32;;;;;;;;;;;21.30;94.20;;;;;;6124492;23;19921;-80
2022/09/07 00:32:59;;;;;;;;;;;21.30;94.10;;;;;;6124580;23;19964;-80
2022/09/07 00:35:26;;;;;;;;;;;21.30;94.00;;;;;;6124245;23;19936;-81
2022/09/07 00:37:53;;;;;;;;;;;21.40;93.80;;;;;;6125122;23;19920;-79
2022/09/07 00:40:19;;;;;;;;;;;21.40;93.60;;;;;;6124615;23;19918;-81
2022/09/07 00:42:46;;;;;;;;;;;21.40;93.60;;;;;;6125044;23;19917;-78
2022/09/07 00:45:15;;;;;;;;;;;21.40;93.70;;;;;;6124186;23;19916;-81
2022/09/07 00:47:48;;;;;;;;;;;21.40;94.10;;;;;;6126503;23;19968;-80
2022/09/07 00:50:17;;;;;;;;;;;21.40;93.90;;;;;;6124059;23;19920;-81
2022/09/07 00:52:45;;;;;;;;;;;21.40;93.80;;;;;;6125091;23;19920;-80
2022/09/07 00:55:13;;;;;;;;;;;21.40;93.70;;;;;;6124362;23;19917;-80
2022/09/07 00:57:41;;;;;;;;;;;21.40;93.80;;;;;;6124951;23;19948;-80
2022/09/07 01:00:08;;;;;;;;;;;21.40;93.90;;;;;;6125178;23;19917;-79
2022/09/07 01:02:35;;;;;;;;;;;21.40;93.70;;;;;;6124459;23;19971;-81
2022/09/07 01:05:23;;;;;;;;;;;21.30;93.40;;;;;;6125051;23;19917;-81
2022/09/07 01:07:49;;;;;;;;;;;21.30;93.30;;;;;;6125230;23;20352;-79
2022/09/07 01:10:17;;;;;;;;;;;21.30;93.50;;;;;;6125094;23;19968;-80
2022/09/07 01:12:44;;;;;;;;;;;21.20;93.90;;;;;;6124317;23;20330;-79
2022/09/07 01:15:11;;;;;;;;;;;21.20;94.00;;;;;;6125173;23;19972;-79
2022/09/07 01:17:46;;;;;;;;;;;21.20;94.40;;;;;;6125483;23;19917;-82
2022/09/07 01:20:22;;;;;;;;;;;21.10;94.20;;;;;;6126604;23;20298;-80
2022/09/07 01:22:52;;;;;;;;;;;21.10;94.10;;;;;;6124193;23;19921;-79
2022/09/07 01:25:25;;;;;;;;;;;21.20;93.90;;;;;;6124730;23;19923;-82
2022/09/07 01:28:11;;;;;;;;;;;21.20;93.60;;;;;;6124485;23;19967;-79
2022/09/07 01:30:39;;;;;;;;;;;21.30;92.90;;;;;;6123979;23;19975;-82
2022/09/07 01:33:09;;;;;;;;;;;21.30;92.60;;;;;;6125127;23;19917;-79
2022/09/07 01:35:44;;;;;;;;;;;21.30;92.40;;;;;;6123921;23;19917;-82
2022/09/07 01:38:20;;;;;;;;;;;21.40;92.10;;;;;;6124615;23;19983;-80
2022/09/07 01:40:59;;;;;;;;;;;21.40;91.80;;;;;;6125404;23;20295;-82
2022/09/07 01:43:35;;;;;;;;;;;21.40;91.40;;;;;;6124461;23;20014;-80
2022/09/07 01:46:04;;;;;;;;;;;21.50;91.10;;;;;;6123686;23;19916;-79
2022/09/07 01:48:32;;;;;;;;;;;21.50;90.80;;;;;;6124520;23;19988;-80
2022/09/07 01:51:01;;;;;;;;;;;21.50;90.60;;;;;;6123940;23;19917;-81
2022/09/07 01:53:33;;;;;;;;;;;21.50;90.30;;;;;;6124263;23;19927;-79
2022/09/07 01:56:03;;;;;;;;;;;21.60;90.00;;;;;;6125319;23;19917;-81
2022/09/07 01:58:42;;;;;;;;;;;21.60;89.50;;;;;;6126015;23;19945;-82
2022/09/07 02:01:27;;;;;;;;;;;21.60;89.10;;;;;;6123684;23;19925;-82
2022/09/07 02:04:14;;;;;;;;;;;21.60;88.80;;;;;;6123532;23;19920;-81
2022/09/07 02:06:45;;;;;;;;;;;21.60;88.80;;;;;;6124447;23;20298;-80
2022/09/07 02:09:16;;;;;;;;;;;21.60;88.80;;;;;;6123660;23;19971;-81
2022/09/07 02:11:45;;;;;;;;;;;21.60;88.80;;;;;;6124445;23;19921;-79
2022/09/07 02:14:31;;;;;;;;;;;21.60;89.20;;;;;;6125417;23;19921;-82
2022/09/07 02:17:03;;;;;;;;;;;21.60;89.60;;;;;;6123568;23;19920;-82
2022/09/07 02:19:33;;;;;;;;;;;21.50;90.20;;;;;;6124159;23;20330;-82
2022/09/07 02:22:03;;;;;;;;;;;21.50;90.70;;;;;;6124843;23;19917;-81
2022/09/07 02:24:34;;;;;;;;;;;21.40;90.90;;;;;;6099028;23;19917;-81
2022/09/07 02:27:04;;;;;;;;;;;21.40;91.10;;;;;;6123566;23;19924;-79
2022/09/07 02:29:31;;;;;;;;;;;21.30;91.10;;;;;;6124173;23;19968;-79
2022/09/07 02:31:58;;;;;;;;;;;21.30;91.30;;;;;;6123507;23;19917;-80
2022/09/07 02:34:25;;;;;;;;;;;21.30;91.50;;;;;;6123800;23;19963;-80
2022/09/07 02:36:52;;;;;;;;;;;21.20;91.60;;;;;;6123650;23;20235;-80
2022/09/07 02:39:19;;;;;;;;;;;21.20;91.70;;;;;;6125241;23;19920;-82
2022/09/07 02:41:46;;;;;;;;;;;21.20;91.40;;;;;;6124309;23;19917;-82
2022/09/07 02:44:20;;;;;;;;;;;21.20;91.00;;;;;;6123323;23;19920;-80
2022/09/07 02:46:56;;;;;;;;;;;21.20;90.80;;;;;;6124114;23;20334;-79
2022/09/07 02:49:53;;;;;;;;;;;21.20;90.50;;;;;;6124856;23;19921;-81
2022/09/07 02:52:38;;;;;;;;;;;21.20;90.20;;;;;;6123264;23;19917;-82
2022/09/07 02:55:14;;;;;;;;;;;21.20;90.10;;;;;;6122761;23;20173;-79
2022/09/07 02:58:01;;;;;;;;;;;21.30;89.90;;;;;;6124207;23;19916;-79
2022/09/07 03:00:30;;;;;;;;;;;21.30;89.80;;;;;;6108442;23;19968;-81
2022/09/07 03:02:57;;;;;;;;;;;21.20;89.70;;;;;;6125237;23;19972;-82
2022/09/07 03:05:24;;;;;;;;;;;21.20;89.50;;;;;;6124758;23;19925;-82
2022/09/07 03:07:50;;;;;;;;;;;21.20;89.70;;;;;;6123611;23;19916;-81
2022/09/07 03:10:17;;;;;;;;;;;21.20;90.00;;;;;;6123044;23;19921;-81
2022/09/07 03:12:46;;;;;;;;;;;21.20;90.00;;;;;;6123873;23;19920;-81
2022/09/07 03:15:16;;;;;;;;;;;21.10;90.70;;;;;;6123067;23;19917;-80
2022/09/07 03:17:44;;;;;;;;;;;21.10;91.10;;;;;;6123444;23;19921;-81
2022/09/07 03:20:11;;;;;;;;;;;21.00;91.60;;;;;;6123295;23;19917;-81
2022/09/07 03:22:38;;;;;;;;;;;20.90;92.00;;;;;;6123850;23;19924;-82
2022/09/07 03:25:05;;;;;;;;;;;20.70;93.20;;;;;;6123962;23;19969;-81
2022/09/07 03:27:32;;;;;;;;;;;20.50;93.90;;;;;;6122364;23;19956;-79
2022/09/07 03:29:59;;;;;;;;;;;20.50;93.90;;;;;;6123875;23;19917;-81
2022/09/07 03:32:29;;;;;;;;;;;20.50;93.60;;;;;;6122870;23;19983;-82
2022/09/07 03:34:57;;;;;;;;;;;20.50;93.50;;;;;;6123678;23;19920;-82
2022/09/07 03:37:26;;;;;;;;;;;20.50;93.60;;;;;;6122793;23;20397;-80
2022/09/07 03:39:53;;;;;;;;;;;20.50;93.40;;;;;;6123738;23;19972;-80
2022/09/07 03:42:20;;;;;;;;;;;20.50;93.40;;;;;;6122988;23;19999;-79
2022/09/07 03:44:50;;;;;;;;;;;20.50;93.20;;;;;;6123885;23;19920;-79
2022/09/07 03:47:17;;;;;;;;;;;20.60;93.60;;;;;;6122926;23;20227;-81
2022/09/07 03:49:43;;;;;;;;;;;20.60;93.40;;;;;;6123565;23;19916;-81
2022/09/07 03:52:10;;;;;;;;;;;20.60;93.50;;;;;;6123662;23;20381;-81
2022/09/07 03:54:37;;;;;;;;;;;20.60;93.10;;;;;;6123740;23;19921;-79
2022/09/07 03:57:05;;;;;;;;;;;20.60;93.00;;;;;;6124384;23;19988;-79
2022/09/07 03:59:32;;;;;;;;;;;20.50;93.30;;;;;;6122705;23;19920;-81
2022/09/07 04:01:59;;;;;;;;;;;20.40;93.50;;;;;;6123915;23;19921;-79
2022/09/07 04:04:26;;;;;;;;;;;20.40;93.50;;;;;;6123308;23;20361;-81
2022/09/07 04:06:53;;;;;;;;;;;20.40;93.80;;;;;;6124469;23;19988;-79
2022/09/07 04:09:20;;;;;;;;;;;20.30;94.10;;;;;;6123474;23;19916;-81
2022/09/07 04:11:46;;;;;;;;;;;20.30;94.40;;;;;;6123921;23;19917;-81
2022/09/07 04:14:13;;;;;;;;;;;20.30;94.80;;;;;;6122773;23;19920;-80
2022/09/07 04:16:40;;;;;;;;;;;20.20;95.00;;;;;;6123675;23;19969;-80
2022/09/07 04:19:07;;;;;;;;;;;20.20;94.80;;;;;;6123235;23;19921;-81
2022/09/07 04:21:33;;;;;;;;;;;20.30;94.70;;;;;;6122847;23;19917;-80
2022/09/07 04:24:00;;;;;;;;;;;20.20;94.40;;;;;;6124675;23;19916;-81
2022/09/07 04:26:28;;;;;;;;;;;20.30;94.60;;;;;;6123104;23;19921;-79
2022/09/07 04:28:55;;;;;;;;;;;20.20;94.90;;;;;;6123465;23;19916;-80
2022/09/07 04:31:23;;;;;;;;;;;20.20;94.60;;;;;;6122948;23;19968;-80
2022/09/07 04:33:50;;;;;;;;;;;20.20;94.40;;;;;;6123399;23;20360;-82
2022/09/07 04:36:18;;;;;;;;;;;20.20;94.50;;;;;;6122977;23;19973;-80
2022/09/07 04:38:45;;;;;;;;;;;20.10;95.00;;;;;;6125894;23;19987;-82
2022/09/07 04:41:13;;;;;;;;;;;20.10;94.70;;;;;;6125454;23;19920;-79
2022/09/07 04:43:42;;;;;;;;;;;20.10;94.80;;;;;;6124641;23;19948;-81
2022/09/07 04:46:18;;;;;;;;;;;20.10;95.30;;;;;;6125432;23;19916;-82
2022/09/07 04:48:49;;;;;;;;;;;20.00;95.20;;;;;;6124786;23;19943;-81
2022/09/07 04:51:16;;;;;;;;;;;20.00;95.00;;;;;;6125529;23;19975;-80
2022/09/07 04:53:42;;;;;;;;;;;20.00;95.50;;;;;;6124750;23;19924;-80
2022/09/07 04:56:09;;;;;;;;;;;20.00;95.60;;;;;;6125362;23;20286;-80
2022/09/07 04:58:42;;;;;;;;;;;20.00;95.60;;;;;;6124260;23;20239;-82
2022/09/07 05:01:09;;;;;;;;;;;19.90;95.90;;;;;;6125414;23;19924;-81
2022/09/07 05:03:37;;;;;;;;;;;19.90;96.30;;;;;;6124513;23;20285;-79
2022/09/07 05:06:04;;;;;;;;;;;19.90;96.10;;;;;;6124944;23;19921;-80
2022/09/07 05:08:38;;;;;;;;;;;19.90;96.00;;;;;;6124468;23;19939;-80
2022/09/07 05:11:05;;;;;;;;;;;19.90;96.00;;;;;;6124561;23;19921;-80
2022/09/07 05:13:32;;;;;;;;;;;19.90;95.80;;;;;;6124119;23;19916;-79
2022/09/07 05:16:00;;;;;;;;;;;20.00;95.70;;;;;;6124568;23;20297;-79
2022/09/07 05:18:27;;;;;;;;;;;20.10;95.20;;;;;;6125782;23;19929;-81
2022/09/07 05:20:54;;;;;;;;;;;20.10;95.00;;;;;;6124676;23;19917;-79
2022/09/07 05:23:21;;;;;;;;;;;20.10;95.30;;;;;;6124877;23;19924;-81
2022/09/07 05:25:48;;;;;;;;;;;20.20;95.10;;;;;;6124379;23;20297;-81
2022/09/07 05:28:15;;;;;;;;;;;20.20;95.50;;;;;;6125165;23;19968;-81
2022/09/07 05:30:45;;;;;;;;;;;20.20;95.50;;;;;;6124031;23;19995;-81
2022/09/07 05:33:32;;;;;;;;;;;20.10;95.80;;;;;;6124690;23;19948;-82
2022/09/07 05:36:20;;;;;;;;;;;20.10;95.90;;;;;;6124633;23;19954;-80
2022/09/07 05:38:47;;;;;;;;;;;20.10;95.90;;;;;;6123695;23;20371;-79
2022/09/07 05:41:18;;;;;;;;;;;20.10;95.90;;;;;;6125587;23;19917;-82
2022/09/07 05:43:44;;;;;;;;;;;20.10;95.60;;;;;;6125829;23;20327;-81
2022/09/07 05:46:31;;;;;;;;;;;20.20;95.90;;;;;;6123934;23;19956;-79
2022/09/07 05:48:59;;;;;;;;;;;20.20;96.00;;;;;;6124718;23;20337;-79
2022/09/07 05:51:26;;;;;;;;;;;20.20;96.20;;;;;;6123081;23;20290;-81
2022/09/07 05:53:55;;;;;;;;;;;20.20;95.90;;;;;;6124441;23;19992;-81
2022/09/07 05:56:21;;;;;;;;;;;20.30;96.20;;;;;;6126005;23;20315;-82
2022/09/07 05:58:48;;;;;;;;;;;20.30;96.30;;;;;;6122749;23;19920;-81
2022/09/07 06:01:16;;;;;;;;;;;20.30;96.20;;;;;;6125365;23;20227;-80
2022/09/07 06:03:43;;;;;;;;;;;20.30;96.00;;;;;;6123552;23;20228;-81
2022/09/07 06:06:11;;;;;;;;;;;20.40;96.00;;;;;;6124577;23;19944;-80
2022/09/07 06:08:42;;;;;;;;;;;20.40;96.40;;;;;;6123451;23;20253;-81
2022/09/07 06:11:11;;;;;;;;;;;20.40;96.40;;;;;;6124512;23;19968;-80
2022/09/07 06:13:41;;;;;;;;;;;20.40;96.20;;;;;;6123612;23;19916;-80
2022/09/07 06:16:10;;;;;;;;;;;20.40;96.30;;;;;;6124393;23;20293;-82
2022/09/07 06:18:41;;;;;;;;;;;20.50;96.20;;;;;;6099373;23;19992;-80
2022/09/07 06:21:09;;;;;;;;;;;20.50;96.10;;;;;;6124057;23;19976;-82
2022/09/07 06:23:36;;;;;;;;;;;20.60;96.00;;;;;;6123720;23;19917;-79
2022/09/07 06:26:03;;;;;;;;;;;20.60;95.90;;;;;;6124629;23;19971;-80
2022/09/07 06:28:33;;;;;;;;;;;20.70;95.90;;;;;;6123874;23;20334;-80
2022/09/07 06:31:04;;;;;;;;;;;20.70;95.80;;;;;;6124642;23;19967;-82
2022/09/07 06:33:31;;;;;;;;;;;20.80;95.80;;;;;;6130267;23;19917;-80
2022/09/07 06:36:06;;;;;;;;;;;20.80;95.70;;;;;;6124452;23;19925;-79
2022/09/07 06:38:34;;;;;;;;;;;20.80;95.60;;;;;;6123660;23;19921;-79
2022/09/07 06:41:02;;;;;;;;;;;20.90;95.50;;;;;;6125928;23;19968;-81
2022/09/07 06:43:48;;;;;;;;;;;20.90;95.30;;;;;;6123491;23;19996;-81
2022/09/07 06:46:16;;;;;;;;;;;20.90;95.20;;;;;;6124338;23;19924;-78
2022/09/07 06:49:03;;;;;;;;;;;21.00;95.10;;;;;;6123787;23;19920;-80
2022/09/07 06:51:31;;;;;;;;;;;21.10;95.00;;;;;;6124240;23;19917;-81
2022/09/07 06:54:00;;;;;;;;;;;21.10;94.90;;;;;;6123104;23;19980;-79
2022/09/07 06:56:47;;;;;;;;;;;21.20;94.90;;;;;;6125161;23;19931;-81
2022/09/07 06:59:14;;;;;;;;;;;21.20;94.80;;;;;;6125699;23;19968;-81
2022/09/07 07:01:40;;;;;;;;;;;21.30;94.70;;;;;;6126258;23;19917;-80
2022/09/07 07:04:07;;;;;;;;;;;21.30;94.70;;;;;;6125274;23;19924;-82
2022/09/07 07:06:35;;;;;;;;;;;21.40;94.70;;;;;;6128045;23;19972;-82
2022/09/07 07:09:03;;;;;;;;;;;21.50;94.60;;;;;;6124612;23;19921;-80
2022/09/07 07:11:30;;;;;;;;;;;21.50;94.40;;;;;;6125933;23;19920;-82
2022/09/07 07:13:57;;;;;;;;;;;21.60;94.30;;;;;;6123684;23;19944;-80
2022/09/07 07:16:23;;;;;;;;;;;21.60;94.00;;;;;;6123712;23;20250;-79
2022/09/07 07:18:54;;;;;;;;;;;21.70;94.10;;;;;;6123015;23;19996;-79
2022/09/07 07:21:20;;;;;;;;;;;21.70;93.80;;;;;;6126128;23;19916;-81
2022/09/07 07:23:51;;;;;;;;;;;21.80;93.40;;;;;;6123046;23;19921;-79
2022/09/07 07:26:22;;;;;;;;;;;21.90;92.70;;;;;;6123834;23;20250;-82
2022/09/07 07:28:50;;;;;;;;;;;21.90;92.20;;;;;;6123169;23;19916;-80
2022/09/07 07:31:33;;;;;;;;;;;22.00;92.10;;;;;;6124944;23;19920;-79
2022/09/07 07:34:02;;;;;;;;;;;22.10;91.90;;;;;;6123017;23;19928;-79
2022/09/07 07:36:29;;;;;;;;;;;22.10;92.20;;;;;;6125458;23;19995;-82
2022/09/07 07:38:56;;;;;;;;;;;22.20;92.20;;;;;;6122716;23;19952;-79
2022/09/07 07:41:31;;;;;;;;;;;22.30;92.00;;;;;;6125288;23;19979;-79
2022/09/07 07:44:19;;;;;;;;;;;22.40;92.10;;;;;;6123330;23;20451;-80
2022/09/07 07:46:46;;;;;;;;;;;22.50;91.30;;;;;;6123595;23;19972;-80
2022/09/07 07:49:13;;;;;;;;;;;22.60;91.60;;;;;;6122753;23;19924;-80
2022/09/07 07:51:40;;;;;;;;;;;22.70;91.00;;;;;;6123248;23;19917;-82
2022/09/07 07:54:27;;;;;;;;;;;22.80;90.60;;;;;;6122813;23;19928;-81
2022/09/07 07:56:53;;;;;;;;;;;22.90;90.60;;;;;;6124927;23;20342;-79
2022/09/07 07:59:20;;;;;;;;;;;23.00;90.10;;;;;;6125801;23;19984;-81
2022/09/07 08:01:47;;;;;;;;;;;23.10;89.10;;;;;;6125098;23;19927;-81
2022/09/07 08:04:14;;;;;;;;;;;23.20;87.90;;;;;;6122476;23;20270;-79
2022/09/07 08:06:41;;;;;;;;;;;23.20;86.20;;;;;;6125136;23;19980;-79
2022/09/07 08:09:08;;;;;;;;;;;23.30;85.90;;;;;;6125882;23;20257;-81
2022/09/07 08:11:34;;;;;;;;;;;23.40;86.10;;;;;;6123734;23;19949;-81
2022/09/07 08:14:03;;;;;;;;;;;23.40;85.00;;;;;;6124847;23;20250;-81
2022/09/07 08:16:30;;;;;;;;;;;23.40;86.60;;;;;;6131168;23;19917;-80
2022/09/07 08:18:57;;;;;;;;;;;23.50;85.60;;;;;;6125639;23;19929;-81
2022/09/07 08:21:24;;;;;;;;;;;23.50;85.40;;;;;;6128424;23;20396;-80
2022/09/07 08:23:51;;;;;;;;;;;23.60;83.70;;;;;;6127289;23;19987;-82
2022/09/07 08:26:17;;;;;;;;;;;23.60;83.80;;;;;;6131975;23;19948;-81
2022/09/07 08:28:45;;;;;;;;;;;23.70;83.30;;;;;;6127244;23;19921;-81
2022/09/07 08:31:13;;;;;;;;;;;23.70;84.00;;;;;;6124414;23;19928;-81
2022/09/07 08:33:40;;;;;;;;;;;23.80;84.30;;;;;;6127058;23;19947;-81
2022/09/07 08:36:08;;;;;;;;;;;23.80;83.40;;;;;;6127207;23;20254;-81
2022/09/07 08:38:35;;;;;;;;;;;23.90;84.60;;;;;;6127099;23;19923;-82
2022/09/07 08:41:17;;;;;;;;;;;24.00;83.70;;;;;;6125313;23;19957;-81
2022/09/07 08:44:13;;;;;;;;;;;24.10;80.70;;;;;;6125932;23;20335;-79
2022/09/07 08:46:59;;;;;;;;;;;24.10;79.50;;;;;;6106348;23;19924;-81
2022/09/07 08:49:36;;;;;;;;;;;24.10;78.20;;;;;;6124629;23;19995;-79
2022/09/07 08:52:07;;;;;;;;;;;24.10;77.60;;;;;;6125731;23;19984;-81
2022/09/07 08:54:34;;;;;;;;;;;24.10;77.00;;;;;;6125684;23;19991;-81
2022/09/07 08:57:02;;;;;;;;;;;24.20;77.20;;;;;;6125302;23;19955;-79
2022/09/07 08:59:54;;;;;;;;;;;24.10;76.40;;;;;;6124992;23;20377;-81
2022/09/07 09:02:21;;;;;;;;;;;24.10;77.40;;;;;;6125101;23;19939;-80
2022/09/07 09:04:59;;;;;;;;;;;24.20;77.50;;;;;;6124554;23;19933;-81
2022/09/07 09:08:01;;;;;;;;;;;24.30;77.40;;;;;;6124544;23;20254;-79
2022/09/07 09:10:35;;;;;;;;;;;24.40;77.10;;;;;;6125671;23;19924;-81
2022/09/07 09:13:05;;;;;;;;;;;24.40;76.40;;;;;;6125775;23;19944;-82
2022/09/07 09:15:41;;;;;;;;;;;24.40;76.90;;;;;;6126334;23;20334;-79
2022/09/07 09:18:22;;;;;;;;;;;24.50;77.30;;;;;;6124995;23;19940;-80
2022/09/07 09:20:52;;;;;;;;;;;24.50;77.90;;;;;;6127949;23;19948;-79
2022/09/07 09:23:20;;;;;;;;;;;24.40;77.90;;;;;;6126730;23;19992;-81
2022/09/07 09:25:54;;;;;;;;;;;24.00;79.30;;;;;;6124152;23;19925;-82
2022/09/07 09:28:21;;;;;;;;;;;23.80;81.90;;;;;;6133922;23;19917;-82
2022/09/07 09:30:49;;;;;;;;;;;23.80;82.20;;;;;;6129965;23;19916;-80
2022/09/07 09:33:18;;;;;;;;;;;23.90;81.70;;;;;;6130640;23;19940;-82
2022/09/07 09:35:48;;;;;;;;;;;23.90;82.70;;;;;;6132308;23;19921;-82
2022/09/07 09:38:30;;;;;;;;;;;23.90;81.70;;;;;;6128282;23;19937;-82
2022/09/07 09:41:18;;;;;;;;;;;24.00;82.50;;;;;;6124607;23;19925;-80
2022/09/07 09:43:52;;;;;;;;;;;24.00;83.30;;;;;;6126991;23;19944;-82
2022/09/07 09:46:33;;;;;;;;;;;24.10;83.20;;;;;;6102105;23;19921;-79
2022/09/07 09:49:02;;;;;;;;;;;24.20;81.40;;;;;;6102128;23;19924;-80
2022/09/07 09:51:32;;;;;;;;;;;24.40;81.10;;;;;;6106855;23;19939;-80
2022/09/07 09:54:28;;;;;;;;;;;24.50;80.30;;;;;;6111193;23;19921;-81
2022/09/07 09:56:55;;;;;;;;;;;24.70;78.30;;;;;;6103331;23;19944;-81
2022/09/07 09:59:30;;;;;;;;;;;24.90;78.90;;;;;;6107314;23;19928;-79
2022/09/07 10:02:27;;;;;;;;;;;25.10;78.40;;;;;;6107700;23;19917;-81
2022/09/07 10:05:39;;;;;;;;;;;25.40;76.10;;;;;;6132453;23;19929;-80
2022/09/07 10:08:15;;;;;;;;;;;25.50;72.00;;;;;;6097661;23;19924;-80
2022/09/07 10:10:54;;;;;;;;;;;25.80;71.60;;;;;;6099962;23;20019;-79
2022/09/07 10:13:22;;;;;;;;;;;26.00;71.70;;;;;;6099820;23;19991;-79
2022/09/07 10:15:49;;;;;;;;;;;26.10;70.30;;;;;;6100180;23;20000;-80
2022/09/07 10:18:20;;;;;;;;;;;26.20;69.90;;;;;;6099345;23;20024;-81
2022/09/07 10:20:47;;;;;;;;;;;26.10;69.90;;;;;;6100036;23;19964;-80
2022/09/07 10:23:22;;;;;;;;;;;26.00;71.20;;;;;;6099445;23;19978;-81
2022/09/07 10:25:49;;;;;;;;;;;26.00;70.50;;;;;;6099665;23;19928;-79
2022/09/07 10:28:20;;;;;;;;;;;25.90;70.30;;;;;;6099142;23;20315;-80
2022/09/07 10:30:53;;;;;;;;;;;25.90;70.10;;;;;;6099569;23;19947;-80
2022/09/07 10:33:33;;;;;;;;;;;26.00;66.70;;;;;;6099786;23;19924;-81
2022/09/07 10:36:26;;;;;;;;;;;26.00;66.70;;;;;;6098512;23;19937;-82
2022/09/07 10:38:56;;;;;;;;;;;26.00;66.60;;;;;;6097425;23;19921;-81
2022/09/07 10:41:29;;;;;;;;;;;26.00;66.60;;;;;;6099753;23;20334;-80
2022/09/07 10:43:56;;;;;;;;;;;26.10;62.90;;;;;;6099866;23;19991;-81
2022/09/07 10:46:23;;;;;;;;;;;26.20;65.60;;;;;;6098965;23;19991;-81
2022/09/07 10:49:18;;;;;;;;;;;26.30;64.10;;;;;;6124451;23;19917;-80
2022/09/07 10:52:02;;;;;;;;;;;26.40;63.30;;;;;;6094600;23;19921;-82
2022/09/07 10:54:52;;;;;;;;;;;26.20;64.40;;;;;;6094117;23;19992;-81
2022/09/07 10:57:34;;;;;;;;;;;26.40;66.30;;;;;;6093812;23;19917;-82
2022/09/07 11:00:11;;;;;;;;;;;26.80;65.50;;;;;;6094448;23;19955;-81
2022/09/07 11:02:50;;;;;;;;;;;26.80;62.70;;;;;;6093979;23;19940;-82
2022/09/07 11:05:55;;;;;;;;;;;27.20;61.50;;;;;;6093873;23;20350;-82
2022/09/07 11:08:26;;;;;;;;;;;27.50;61.20;;;;;;6095714;23;19921;-82
2022/09/07 11:11:01;;;;;;;;;;;27.80;58.40;;;;;;6094320;23;19921;-81
2022/09/07 11:13:30;;;;;;;;;;;27.90;58.90;;;;;;6093439;23;20257;-81
2022/09/07 11:15:58;;;;;;;;;;;27.80;57.90;;;;;;6094468;23;20059;-80
2022/09/07 11:18:29;;;;;;;;;;;27.60;57.70;;;;;;6093816;23;20360;-82
2022/09/07 11:20:57;;;;;;;;;;;27.80;58.80;;;;;;6094222;23;20306;-82
2022/09/07 11:23:30;;;;;;;;;;;28.00;59.30;;;;;;6093721;23;19996;-81
2022/09/07 11:26:03;;;;;;;;;;;28.20;56.40;;;;;;6095653;23;19956;-82
2022/09/07 11:28:48;;;;;;;;;;;28.40;56.50;;;;;;6093442;23;20326;-80
2022/09/07 11:31:40;;;;;;;;;;;28.50;56.90;;;;;;6093675;23;19933;-79
2022/09/07 11:34:17;;;;;;;;;;;28.70;55.60;;;;;;6094105;23;19917;-81
2022/09/07 11:37:12;;;;;;;;;;;28.50;56.30;;;;;;6094238;23;19917;-80
2022/09/07 11:39:54;;;;;;;;;;;28.30;57.20;;;;;;6093453;23;19944;-81
2022/09/07 11:42:24;;;;;;;;;;;28.60;56.20;;;;;;6094312;23;20334;-81
2022/09/07 11:45:31;;;;;;;;;;;28.80;55.80;;;;;;6093529;23;20012;-81
2022/09/07 11:48:00;;;;;;;;;;;28.60;54.70;;;;;;6093962;23;19921;-82
2022/09/07 11:50:28;;;;;;;;;;;28.30;56.10;;;;;;6096226;23;19991;-80
2022/09/07 11:53:01;;;;;;;;;;;28.20;57.10;;;;;;6095547;23;19991;-80
2022/09/07 11:55:29;;;;;;;;;;;27.90;58.20;;;;;;6096553;23;19999;-82
2022/09/07 11:58:14;;;;;;;;;;;27.70;58.90;;;;;;6095787;23;19968;-81
2022/09/07 12:00:47;;;;;;;;;;;27.70;59.30;;;;;;6096342;23;19992;-82
2022/09/07 12:03:13;;;;;;;;;;;27.40;59.00;;;;;;6095757;23;19940;-80
2022/09/07 12:05:59;;;;;;;;;;;27.30;60.40;;;;;;6096069;23;19921;-81
2022/09/07 12:08:44;;;;;;;;;;;27.40;59.80;;;;;;6095890;23;19924;-82
2022/09/07 12:11:20;;;;;;;;;;;27.50;59.40;;;;;;6095252;23;19921;-81
2022/09/07 12:13:52;;;;;;;;;;;27.50;59.20;;;;;;6096375;23;20335;-81
2022/09/07 12:16:41;;;;;;;;;;;27.10;58.80;;;;;;6095610;23;19944;-81
2022/09/07 12:19:08;;;;;;;;;;;26.90;59.80;;;;;;6091431;23;19917;-81
2022/09/07 12:21:41;;;;;;;;;;;27.00;60.30;;;;;;6096165;23;19968;-81
2022/09/07 12:24:26;;;;;;;;;;;27.10;59.80;;;;;;6095298;23;19952;-81
2022/09/07 12:26:53;;;;;;;;;;;27.10;58.90;;;;;;6096088;23;19932;-81
2022/09/07 12:29:21;;;;;;;;;;;27.20;59.70;;;;;;6095353;23;19945;-81
2022/09/07 12:31:49;;;;;;;;;;;27.20;59.30;;;;;;6095883;23;19925;-81
2022/09/07 12:34:33;;;;;;;;;;;27.20;59.40;;;;;;6096290;23;19925;-82
2022/09/07 12:37:08;;;;;;;;;;;27.30;60.10;;;;;;6095856;23;19964;-81
2022/09/07 12:39:42;;;;;;;;;;;27.50;61.10;;;;;;6095657;23;19925;-81
2022/09/07 12:42:22;;;;;;;;;;;27.60;58.60;;;;;;6095821;23;20362;-81
2022/09/07 12:45:23;;;;;;;;;;;27.80;58.70;;;;;;6095680;23;19940;-82
2022/09/07 12:47:57;;;;;;;;;;;27.60;58.60;;;;;;6095328;23;20250;-81
2022/09/07 12:50:27;;;;;;;;;;;27.70;58.40;;;;;;6096177;23;19947;-82
2022/09/07 12:53:19;;;;;;;;;;;27.60;57.70;;;;;;6095037;23;19917;-82
2022/09/07 12:56:15;;;;;;;;;;;27.70;58.40;;;;;;6099359;23;19944;-81
2022/09/07 12:58:45;;;;;;;;;;;28.10;57.30;;;;;;6089258;23;20379;-81
2022/09/07 13:01:15;;;;;;;;;;;28.50;56.40;;;;;;6095731;23;20404;-82
2022/09/07 13:04:04;;;;;;;;;;;29.10;55.70;;;;;;6095019;23;19917;-81
2022/09/07 13:06:37;;;;;;;;;;;29.30;55.20;;;;;;6096822;23;19943;-80
2022/09/07 13:09:27;;;;;;;;;;;29.50;53.80;;;;;;6096708;23;19921;-80
2022/09/07 13:11:54;;;;;;;;;;;28.70;53.70;;;;;;6095676;23;19983;-82
2022/09/07 13:14:24;;;;;;;;;;;28.40;55.70;;;;;;6095073;23;19918;-80
2022/09/07 13:17:09;;;;;;;;;;;28.40;56.80;;;;;;6095933;23;19924;-81
2022/09/07 13:19:49;;;;;;;;;;;28.70;56.80;;;;;;6095182;23;19917;-81
2022/09/07 13:22:31;;;;;;;;;;;28.90;55.50;;;;;;6095685;23;19974;-81
2022/09/07 13:24:59;;;;;;;;;;;29.10;55.00;;;;;;6095975;23;19998;-82
2022/09/07 13:27:32;;;;;;;;;;;29.50;53.30;;;;;;6095647;23;19917;-81
2022/09/07 13:30:01;;;;;;;;;;;29.80;52.70;;;;;;6094980;23;20062;-81
2022/09/07 13:32:32;;;;;;;;;;;29.90;51.70;;;;;;6095768;23;20004;-80
2022/09/07 13:35:20;;;;;;;;;;;29.70;50.70;;;;;;6096019;23;20239;-80
2022/09/07 13:37:51;;;;;;;;;;;29.50;51.80;;;;;;6095938;23;19917;-82
2022/09/07 13:40:23;;;;;;;;;;;28.80;51.00;;;;;;6097227;23;19988;-82
2022/09/07 13:42:51;;;;;;;;;;;28.20;53.20;;;;;;6096153;23;19992;-79
2022/09/07 13:45:45;;;;;;;;;;;28.10;53.90;;;;;;6096532;23;19988;-82
2022/09/07 13:48:12;;;;;;;;;;;28.00;52.90;;;;;;6095842;23;19927;-81
2022/09/07 13:50:57;;;;;;;;;;;27.70;53.60;;;;;;6098305;23;20383;-81
2022/09/07 13:53:43;;;;;;;;;;;27.70;53.80;;;;;;6094457;23;20025;-81
2022/09/07 13:56:09;;;;;;;;;;;27.50;54.60;;;;;;6094284;23;20258;-80
2022/09/07 13:58:38;;;;;;;;;;;27.30;55.50;;;;;;6096657;23;19941;-78
2022/09/07 14:01:16;;;;;;;;;;;27.20;55.40;;;;;;6094447;23;19941;-81
2022/09/07 14:03:52;;;;;;;;;;;27.10;56.50;;;;;;6095146;23;19917;-80
2022/09/07 14:06:21;;;;;;;;;;;27.00;56.20;;;;;;6097956;23;19951;-81
2022/09/07 14:08:50;;;;;;;;;;;27.00;57.10;;;;;;6095287;23;19952;-81
2022/09/07 14:11:22;;;;;;;;;;;27.00;57.30;;;;;;6093721;23;19924;-82
2022/09/07 14:14:07;;;;;;;;;;;27.00;56.30;;;;;;6095211;23;19921;-80
2022/09/07 14:16:34;;;;;;;;;;;27.00;57.00;;;;;;6096137;23;19944;-82
2022/09/07 14:19:07;;;;;;;;;;;27.10;57.00;;;;;;6095245;23;19928;-81
2022/09/07 14:21:34;;;;;;;;;;;27.20;57.70;;;;;;6094057;23;19917;-80
2022/09/07 14:24:02;;;;;;;;;;;27.40;57.60;;;;;;6095071;23;19952;-81
2022/09/07 14:26:29;;;;;;;;;;;27.40;57.30;;;;;;6096160;23;20327;-80
2022/09/07 14:28:55;;;;;;;;;;;27.50;58.40;;;;;;6094983;23;19988;-81
2022/09/07 14:31:23;;;;;;;;;;;27.60;57.60;;;;;;6096009;23;19921;-81
2022/09/07 14:33:54;;;;;;;;;;;27.70;57.20;;;;;;6097426;23;19943;-81
2022/09/07 14:36:28;;;;;;;;;;;27.90;55.80;;;;;;6093875;23;19925;-82
2022/09/07 14:39:12;;;;;;;;;;;28.00;55.20;;;;;;6094262;23;19965;-82
2022/09/07 14:41:40;;;;;;;;;;;28.00;55.30;;;;;;6096590;23;19984;-82
2022/09/07 14:44:25;;;;;;;;;;;28.00;54.40;;;;;;6094812;23;19935;-81
2022/09/07 14:46:53;;;;;;;;;;;27.90;54.60;;;;;;6094441;23;19921;-84